createdAt,value
2019-03-16T00:00:08.419Z,25.37
2019-03-16T00:02:36.466Z,25.77
2019-03-16T00:05:04.890Z,21.90
2019-03-16T00:07:33.451Z,25.77
2019-03-16T00:10:01.746Z,19.93
2019-03-16T00:12:29.813Z,25.73
2019-03-16T00:14:58.021Z,24.67
2019-03-16T00:17:26.094Z,23.60
2019-03-16T00:19:54.286Z,21.13
2019-03-16T00:22:22.342Z,22.77
2019-03-16T00:24:50.371Z,23.83
2019-03-16T00:27:18.494Z,26.70
2019-03-16T00:29:46.600Z,27.70
2019-03-16T00:32:14.667Z,23.97
2019-03-16T00:34:42.712Z,25.10
2019-03-16T00:37:10.771Z,17.43
2019-03-16T00:39:39.113Z,28.13
2019-03-16T00:42:07.235Z,19.70
2019-03-16T00:44:35.291Z,28.13
2019-03-16T00:47:03.340Z,20.20
2019-03-16T00:49:31.414Z,22.43
2019-03-16T00:51:59.492Z,21.30
2019-03-16T00:54:27.513Z,28.10
2019-03-16T00:56:55.599Z,28.23
2019-03-16T00:59:23.627Z,19.20
2019-03-16T01:01:51.712Z,20.73
2019-03-16T01:04:19.758Z,26.67
2019-03-16T01:06:47.850Z,23.17
2019-03-16T01:09:15.891Z,28.90
2019-03-16T01:11:43.988Z,24.93
2019-03-16T01:14:12.060Z,27.20
2019-03-16T01:16:40.172Z,26.30
2019-03-16T01:19:08.290Z,24.73
2019-03-16T01:21:36.438Z,24.37
2019-03-16T01:24:04.533Z,26.20
2019-03-16T01:26:32.631Z,30.87
2019-03-16T01:29:00.682Z,26.57
2019-03-16T01:31:28.784Z,20.57
2019-03-16T01:33:56.842Z,25.83
2019-03-16T01:36:24.921Z,23.00
2019-03-16T01:38:52.900Z,23.97
2019-03-16T01:41:20.943Z,23.40
2019-03-16T01:43:48.983Z,23.47
2019-03-16T01:46:17.046Z,23.23
2019-03-16T01:48:45.149Z,22.80
2019-03-16T01:51:13.251Z,21.40
2019-03-16T01:53:41.339Z,21.77
2019-03-16T01:56:09.440Z,21.23
2019-03-16T01:58:37.479Z,28.13
2019-03-16T02:01:05.554Z,22.50
2019-03-16T02:03:33.618Z,27.93
2019-03-16T02:06:01.737Z,24.17
2019-03-16T02:08:29.860Z,19.30
2019-03-16T02:10:58.044Z,21.50
2019-03-16T02:13:26.111Z,28.10
2019-03-16T02:15:54.150Z,25.67
2019-03-16T02:18:22.230Z,23.47
2019-03-16T02:20:50.295Z,33.07
2019-03-16T02:23:18.393Z,28.37
2019-03-16T02:25:46.459Z,22.23
2019-03-16T02:28:14.547Z,24.23
2019-03-16T02:30:42.676Z,21.97
2019-03-16T02:33:12.978Z,25.43
2019-03-16T02:35:40.544Z,34.03
2019-03-16T02:38:08.700Z,24.20
2019-03-16T02:40:36.740Z,19.30
2019-03-16T02:43:04.912Z,29.27
2019-03-16T02:45:32.942Z,32.70
2019-03-16T02:48:00.986Z,28.07
2019-03-16T02:50:29.053Z,28.37
2019-03-16T02:52:57.089Z,26.30
2019-03-16T02:55:25.149Z,25.53
2019-03-16T02:57:53.290Z,25.70
2019-03-16T03:00:21.332Z,24.67
2019-03-16T03:02:49.391Z,30.33
2019-03-16T03:05:32.554Z,30.63
2019-03-16T03:08:00.584Z,20.70
2019-03-16T03:10:28.653Z,24.90
2019-03-16T03:12:56.773Z,26.03
2019-03-16T03:15:24.844Z,26.40
2019-03-16T03:17:52.939Z,22.10
2019-03-16T03:20:20.970Z,30.07
2019-03-16T03:22:49.040Z,25.07
2019-03-16T03:25:17.108Z,33.77
2019-03-16T03:27:45.419Z,23.87
2019-03-16T03:30:13.496Z,29.07
2019-03-16T03:32:41.590Z,18.83
2019-03-16T03:38:30.827Z,24.77
2019-03-16T03:41:01.661Z,24.77
2019-03-16T03:43:28.889Z,32.30
2019-03-16T03:45:56.938Z,27.30
2019-03-16T03:48:25.029Z,30.20
2019-03-16T03:50:53.119Z,24.30
2019-03-16T03:53:21.842Z,23.13
2019-03-16T03:55:49.911Z,21.77
2019-03-16T03:58:18.028Z,23.63
2019-03-16T04:00:46.066Z,30.13
2019-03-16T04:03:14.205Z,29.70
2019-03-16T04:09:04.275Z,41.47
2019-03-16T04:14:53.765Z,23.00
2019-03-16T04:17:21.839Z,34.77
2019-03-16T04:19:49.894Z,23.80
2019-03-16T04:22:17.924Z,22.73
2019-03-16T04:24:45.989Z,31.50
2019-03-16T04:27:16.225Z,23.37
2019-03-16T04:29:43.872Z,25.57
2019-03-16T04:32:11.898Z,24.73
2019-03-16T04:34:39.994Z,22.73
2019-03-16T04:37:08.036Z,25.10
2019-03-16T04:39:36.127Z,25.17
2019-03-16T04:45:13.971Z,21.70
2019-03-16T04:47:42.058Z,26.10
2019-03-16T04:50:10.130Z,31.25
2019-03-16T04:52:38.188Z,26.07
2019-03-16T04:55:06.583Z,23.20
2019-03-16T04:57:34.654Z,18.37
2019-03-16T05:00:02.758Z,32.33
2019-03-16T05:02:30.838Z,23.70
2019-03-16T05:04:58.904Z,33.07
2019-03-16T05:07:26.975Z,22.20
2019-03-16T05:09:55.096Z,28.53
2019-03-16T05:12:23.162Z,20.53
2019-03-16T05:14:51.244Z,26.03
2019-03-16T05:17:19.279Z,24.20
2019-03-16T05:19:47.310Z,26.70
2019-03-16T05:22:15.363Z,21.17
2019-03-16T05:24:43.451Z,21.63
2019-03-16T05:27:11.573Z,29.03
2019-03-16T05:29:39.635Z,24.87
2019-03-16T05:32:07.742Z,31.13
2019-03-16T05:34:37.106Z,24.10
2019-03-16T05:37:05.193Z,28.07
2019-03-16T05:39:33.237Z,20.20
2019-03-16T05:42:01.314Z,19.67
2019-03-16T05:44:29.328Z,21.77
2019-03-16T05:46:57.375Z,29.83
2019-03-16T05:49:25.422Z,19.70
2019-03-16T05:51:53.477Z,30.30
2019-03-16T05:54:21.523Z,24.77
2019-03-16T05:56:49.592Z,17.27
2019-03-16T05:59:17.651Z,19.07
2019-03-16T06:01:45.761Z,21.03
2019-03-16T06:04:13.792Z,18.00
2019-03-16T06:06:41.888Z,21.80
2019-03-16T06:09:10.879Z,28.30
2019-03-16T06:11:38.944Z,24.50
2019-03-16T06:14:06.989Z,24.10
2019-03-16T06:16:35.064Z,17.00
2019-03-16T06:19:03.165Z,22.47
2019-03-16T06:21:31.263Z,21.23
2019-03-16T06:23:59.306Z,22.00
2019-03-16T06:26:27.412Z,19.60
2019-03-16T06:28:55.469Z,19.67
2019-03-16T06:31:23.553Z,17.30
2019-03-16T06:33:51.629Z,25.00
2019-03-16T06:36:19.682Z,19.10
2019-03-16T06:38:47.755Z,27.13
2019-03-16T06:41:15.776Z,21.10
2019-03-16T06:43:43.835Z,20.93
2019-03-16T06:46:11.824Z,19.37
2019-03-16T06:48:39.905Z,19.83
2019-03-16T06:51:07.958Z,25.97
2019-03-16T06:53:36.032Z,18.50
2019-03-16T06:56:04.205Z,21.10
2019-03-16T06:58:32.283Z,18.83
2019-03-16T07:01:00.377Z,19.00
2019-03-16T07:03:28.420Z,22.67
2019-03-16T07:05:56.479Z,24.10
2019-03-16T07:08:24.554Z,20.37
2019-03-16T07:10:52.596Z,22.67
2019-03-16T07:13:20.685Z,25.17
2019-03-16T07:15:48.773Z,15.17
2019-03-16T07:18:17.209Z,24.43
2019-03-16T07:20:45.224Z,18.77
2019-03-16T07:23:13.325Z,26.40
2019-03-16T07:25:41.361Z,20.80
2019-03-16T07:28:09.368Z,24.23
2019-03-16T07:30:37.498Z,19.47
2019-03-16T07:33:05.756Z,23.63
2019-03-16T07:35:33.816Z,15.97
2019-03-16T07:38:01.912Z,21.37
2019-03-16T07:40:29.972Z,21.73
2019-03-16T07:42:58.174Z,25.27
2019-03-16T07:45:26.231Z,19.37
2019-03-16T07:47:54.323Z,17.57
2019-03-16T07:50:22.415Z,23.60
2019-03-16T07:52:50.521Z,18.47
2019-03-16T07:55:18.699Z,20.13
2019-03-16T07:57:46.817Z,16.97
2019-03-16T08:00:14.973Z,19.47
2019-03-16T08:02:44.307Z,17.87
2019-03-16T08:05:18.812Z,16.13
2019-03-16T08:07:43.186Z,18.40
2019-03-16T08:10:11.381Z,19.90
2019-03-16T08:12:39.545Z,21.83
2019-03-16T08:15:07.686Z,22.00
2019-03-16T08:17:35.773Z,17.93
2019-03-16T08:20:10.181Z,21.60
2019-03-16T08:22:39.422Z,21.27
2019-03-16T08:25:17.796Z,20.80
2019-03-16T08:27:54.501Z,23.50
2019-03-16T08:30:24.369Z,20.20
2019-03-16T08:33:00.705Z,31.10
2019-03-16T08:35:29.679Z,16.60
2019-03-16T08:37:57.971Z,21.63
2019-03-16T08:40:26.937Z,17.60
2019-03-16T08:42:59.714Z,18.33
2019-03-16T08:45:28.271Z,23.33
2019-03-16T08:47:56.952Z,22.03
2019-03-16T08:50:25.024Z,21.00
2019-03-16T08:55:47.944Z,14.47
2019-03-16T08:58:16.860Z,14.87
2019-03-16T09:00:48.494Z,16.23
2019-03-16T09:03:17.469Z,23.03
2019-03-16T09:05:46.169Z,20.93
2019-03-16T09:08:17.325Z,20.27
2019-03-16T09:10:45.434Z,13.00
2019-03-16T09:13:13.504Z,16.47
2019-03-16T09:15:41.595Z,16.13
2019-03-16T09:18:09.705Z,15.20
2019-03-16T09:20:37.790Z,20.80
2019-03-16T09:23:05.850Z,11.70
2019-03-16T09:25:34.084Z,16.87
2019-03-16T09:28:02.132Z,10.73
2019-03-16T09:30:30.431Z,10.63
2019-03-16T09:32:59.068Z,13.77
2019-03-16T09:35:34.641Z,12.13
2019-03-16T09:38:05.326Z,14.23
2019-03-16T09:40:33.744Z,14.50
2019-03-16T09:43:05.028Z,8.63
2019-03-16T09:45:36.885Z,12.37
2019-03-16T09:48:05.249Z,13.03
2019-03-16T09:50:58.271Z,13.50
2019-03-16T09:53:07.937Z,11.57
2019-03-16T09:55:36.205Z,12.73
2019-03-16T09:58:04.346Z,14.10
2019-03-16T10:00:49.214Z,10.53
2019-03-16T10:03:25.370Z,14.13
2019-03-16T10:05:53.563Z,12.30
2019-03-16T10:08:31.024Z,11.70
2019-03-16T10:11:00.432Z,10.50
2019-03-16T10:13:32.126Z,8.87
2019-03-16T10:16:04.154Z,7.97
2019-03-16T10:18:32.244Z,12.40
2019-03-16T10:21:01.317Z,12.90
2019-03-16T10:23:30.958Z,12.63
2019-03-16T10:25:59.034Z,9.00
2019-03-16T10:28:27.016Z,7.97
2019-03-16T10:34:04.455Z,7.17
2019-03-16T10:39:53.957Z,7.80
2019-03-16T10:45:44.039Z,12.63
2019-03-16T10:48:12.130Z,8.13
2019-03-16T10:50:40.208Z,8.93
2019-03-16T10:53:08.299Z,5.60
2019-03-16T10:55:36.346Z,8.30
2019-03-16T10:58:06.403Z,8.53
2019-03-16T11:00:34.482Z,10.30
2019-03-16T11:03:05.910Z,10.57
2019-03-16T11:05:34.831Z,8.27
2019-03-16T11:08:06.304Z,8.67
2019-03-16T11:10:34.679Z,7.43
2019-03-16T11:13:04.725Z,5.93
2019-03-16T11:15:33.017Z,5.10
2019-03-16T11:18:01.260Z,5.40
2019-03-16T11:20:32.052Z,5.90
2019-03-16T11:23:00.346Z,6.33
2019-03-16T11:25:28.846Z,5.13
2019-03-16T11:27:57.181Z,5.30
2019-03-16T11:30:27.794Z,6.47
2019-03-16T11:33:03.971Z,6.00
2019-03-16T11:35:34.997Z,5.33
2019-03-16T11:38:03.801Z,5.20
2019-03-16T11:40:35.002Z,4.30
2019-03-16T11:43:03.387Z,7.83
2019-03-16T11:45:34.991Z,6.70
2019-03-16T11:48:03.335Z,6.10
2019-03-16T11:50:31.929Z,4.47
2019-03-16T11:53:06.410Z,4.57
2019-03-16T11:55:34.687Z,2.93
2019-03-16T11:58:03.378Z,5.43
2019-03-16T12:00:36.771Z,4.83
2019-03-16T12:03:05.447Z,7.50
2019-03-16T12:05:42.050Z,7.20
2019-03-16T12:08:20.247Z,9.13
2019-03-16T12:10:59.644Z,3.77
2019-03-16T12:13:29.968Z,5.30
2019-03-16T12:16:01.641Z,4.37
2019-03-16T12:21:55.543Z,3.50
2019-03-16T12:24:24.238Z,6.10
2019-03-16T12:26:52.695Z,13.30
2019-03-16T12:29:33.096Z,8.43
2019-03-16T12:31:51.558Z,7.90
2019-03-16T12:34:20.333Z,7.20
2019-03-16T12:36:49.179Z,6.40
2019-03-16T12:39:17.634Z,16.73
2019-03-16T12:41:45.895Z,12.40
2019-03-16T12:44:14.185Z,7.07
2019-03-16T12:46:43.526Z,5.60
2019-03-16T12:49:12.287Z,10.20
2019-03-16T12:51:40.869Z,12.70
2019-03-16T12:54:09.486Z,13.33
2019-03-16T12:56:38.340Z,12.33
2019-03-16T12:59:10.755Z,9.17
2019-03-16T13:01:36.217Z,5.70
2019-03-16T13:04:04.676Z,12.97
2019-03-16T13:06:33.242Z,8.33
2019-03-16T13:09:01.943Z,6.77
2019-03-16T13:11:30.610Z,15.80
2019-03-16T13:13:58.718Z,5.90
2019-03-16T13:16:26.901Z,6.50
2019-03-16T13:18:54.992Z,12.30
2019-03-16T13:21:23.272Z,7.03
2019-03-16T13:23:52.222Z,4.23
2019-03-16T13:26:20.406Z,6.40
2019-03-16T13:28:48.426Z,3.90
2019-03-16T13:31:16.800Z,2.67
2019-03-16T13:33:45.117Z,3.43
2019-03-16T13:36:13.377Z,4.07
2019-03-16T13:38:41.826Z,1.57
2019-03-16T13:41:10.354Z,9.67
2019-03-16T13:43:38.554Z,5.53
2019-03-16T13:46:06.736Z,2.33
2019-03-16T13:48:34.865Z,3.07
2019-03-16T13:51:02.951Z,2.70
2019-03-16T13:53:32.660Z,6.37
2019-03-16T13:56:01.345Z,5.70
2019-03-16T13:58:29.580Z,4.87
2019-03-16T14:01:00.753Z,5.87
2019-03-16T14:03:28.851Z,6.37
2019-03-16T14:05:57.325Z,5.13
2019-03-16T14:08:25.600Z,12.53
2019-03-16T14:10:53.742Z,6.77
2019-03-16T14:13:22.167Z,15.03
2019-03-16T14:15:50.364Z,6.70
2019-03-16T14:18:18.878Z,6.30
2019-03-16T14:20:47.635Z,6.27
2019-03-16T14:23:15.848Z,9.33
2019-03-16T14:25:44.256Z,17.47
2019-03-16T14:28:12.487Z,14.63
2019-03-16T14:30:42.673Z,14.00
2019-03-16T14:33:10.438Z,8.37
2019-03-16T14:35:38.577Z,9.43
2019-03-16T14:38:06.736Z,7.67
2019-03-16T14:40:34.988Z,6.37
2019-03-16T14:43:03.671Z,8.63
2019-03-16T14:46:10.863Z,8.77
2019-03-16T14:48:39.279Z,11.70
2019-03-16T14:51:07.396Z,8.77
2019-03-16T14:53:35.497Z,5.83
2019-03-16T14:56:03.878Z,11.90
2019-03-16T14:58:32.235Z,13.23
2019-03-16T15:01:01.153Z,17.60
2019-03-16T15:03:29.253Z,19.97
2019-03-16T15:05:57.381Z,14.07
2019-03-16T15:08:25.512Z,13.13
2019-03-16T15:10:53.925Z,20.83
2019-03-16T15:13:22.105Z,9.90
2019-03-16T15:15:50.470Z,28.23
2019-03-16T15:18:19.682Z,17.83
2019-03-16T15:20:48.451Z,15.33
2019-03-16T15:23:24.388Z,19.37
2019-03-16T15:25:52.489Z,18.10
2019-03-16T15:28:20.855Z,16.90
2019-03-16T15:30:50.965Z,23.23
2019-03-16T15:36:28.959Z,11.60
2019-03-16T15:38:57.230Z,22.50
2019-03-16T15:41:25.303Z,15.10
2019-03-16T15:43:53.473Z,14.30
2019-03-16T15:46:22.029Z,19.47
2019-03-16T15:48:50.649Z,18.47
2019-03-16T15:51:18.857Z,14.67
2019-03-16T15:53:47.560Z,14.37
2019-03-16T15:56:16.365Z,17.33
2019-03-16T15:58:44.942Z,13.80
2019-03-16T16:01:13.030Z,12.80
2019-03-16T16:03:41.667Z,14.27
2019-03-16T16:06:10.878Z,14.50
2019-03-16T16:08:39.112Z,15.33
2019-03-16T16:11:08.042Z,16.07
2019-03-16T16:13:36.831Z,13.83
2019-03-16T16:16:05.750Z,17.47
2019-03-16T16:18:34.608Z,17.47
2019-03-16T16:21:03.004Z,19.87
2019-03-16T16:23:31.600Z,19.33
2019-03-16T16:25:59.909Z,19.43
2019-03-16T16:28:28.094Z,17.20
2019-03-16T16:30:57.920Z,17.57
2019-03-16T16:33:26.154Z,17.40
2019-03-16T16:35:54.764Z,20.80
2019-03-16T16:38:24.118Z,18.77
2019-03-16T16:40:53.049Z,17.20
2019-03-16T16:43:21.264Z,19.63
2019-03-16T16:45:50.068Z,19.93
2019-03-16T16:48:19.097Z,17.03
2019-03-16T16:50:48.080Z,17.07
2019-03-16T16:53:16.754Z,19.90
2019-03-16T16:55:45.737Z,19.77
2019-03-16T16:58:14.437Z,18.77
2019-03-16T17:00:42.501Z,17.77
2019-03-16T17:03:10.669Z,16.20
2019-03-16T17:05:38.966Z,17.13
2019-03-16T17:08:07.766Z,15.70
2019-03-16T17:10:36.359Z,14.03
2019-03-16T17:13:04.795Z,14.87
2019-03-16T17:15:43.640Z,16.80
2019-03-16T17:18:12.036Z,17.87
2019-03-16T17:20:42.436Z,16.93
2019-03-16T17:23:11.133Z,16.67
2019-03-16T17:25:40.262Z,12.10
2019-03-16T17:28:08.981Z,11.33
2019-03-16T17:30:38.086Z,15.93
2019-03-16T17:33:07.055Z,11.40
2019-03-16T17:35:35.260Z,12.63
2019-03-16T17:38:04.204Z,13.77
2019-03-16T17:40:32.354Z,12.20
2019-03-16T17:43:00.472Z,10.70
2019-03-16T17:45:28.561Z,11.77
2019-03-16T17:47:56.645Z,10.83
2019-03-16T17:50:24.904Z,10.83
2019-03-16T17:52:53.538Z,8.80
2019-03-16T17:55:21.686Z,11.50
2019-03-16T17:57:50.086Z,10.73
2019-03-16T18:00:18.727Z,10.03
2019-03-16T18:03:05.830Z,11.10
2019-03-16T18:05:34.566Z,10.97
2019-03-16T18:08:04.481Z,8.50
2019-03-16T18:10:32.900Z,12.37
2019-03-16T18:13:01.645Z,8.67
2019-03-16T18:15:30.363Z,10.73
2019-03-16T18:17:59.161Z,12.03
2019-03-16T18:20:28.392Z,9.80
2019-03-16T18:22:57.167Z,17.03
2019-03-16T18:25:25.459Z,14.10
2019-03-16T18:27:54.601Z,10.13
2019-03-16T18:30:22.706Z,13.80
2019-03-16T18:32:51.123Z,11.13
2019-03-16T18:35:38.836Z,10.70
2019-03-16T18:38:07.290Z,8.07
2019-03-16T18:40:35.560Z,12.60
2019-03-16T18:43:04.793Z,10.10
2019-03-16T18:45:32.805Z,9.13
2019-03-16T18:48:01.521Z,10.17
2019-03-16T18:50:29.624Z,12.80
2019-03-16T18:52:57.710Z,9.63
2019-03-16T18:55:25.767Z,8.87
2019-03-16T18:57:53.941Z,10.10
2019-03-16T19:00:22.026Z,9.00
2019-03-16T19:02:50.824Z,9.90
2019-03-16T19:05:19.251Z,7.43
2019-03-16T19:07:47.483Z,9.83
2019-03-16T19:10:15.549Z,9.93
2019-03-16T19:12:43.706Z,7.57
2019-03-16T19:15:12.541Z,11.43
2019-03-16T19:17:40.763Z,7.37
2019-03-16T19:20:09.635Z,9.27
2019-03-16T19:22:37.774Z,6.47
2019-03-16T19:25:06.239Z,9.53
2019-03-16T19:27:34.288Z,7.23
2019-03-16T19:30:02.431Z,6.73
2019-03-16T19:32:33.896Z,8.13
2019-03-16T19:35:00.432Z,7.00
2019-03-16T19:37:28.533Z,11.23
2019-03-16T19:39:56.589Z,8.93
2019-03-16T19:42:24.700Z,6.80
2019-03-16T19:44:52.844Z,7.43
2019-03-16T19:47:20.944Z,8.70
2019-03-16T19:49:49.026Z,7.43
2019-03-16T19:52:17.096Z,6.93
2019-03-16T19:54:45.276Z,7.77
2019-03-16T19:57:16.278Z,6.37
2019-03-16T19:59:43.101Z,6.70
2019-03-16T20:02:11.226Z,7.40
2019-03-16T20:04:39.349Z,6.17
2019-03-16T20:07:18.686Z,8.57
2019-03-16T20:09:37.235Z,7.73
2019-03-16T20:12:05.359Z,7.57
2019-03-16T20:14:36.510Z,8.57
2019-03-16T20:17:04.754Z,7.37
2019-03-16T20:19:32.863Z,4.97
2019-03-16T20:22:01.081Z,6.77
2019-03-16T20:24:29.159Z,7.50
2019-03-16T20:26:57.292Z,7.37
2019-03-16T20:29:25.733Z,8.87
2019-03-16T20:31:53.870Z,7.40
2019-03-16T20:34:21.962Z,11.10
2019-03-16T20:36:50.070Z,7.47
2019-03-16T20:39:18.192Z,9.97
2019-03-16T20:41:46.310Z,6.53
2019-03-16T20:44:14.451Z,5.80
2019-03-16T20:46:42.643Z,10.10
2019-03-16T20:49:10.790Z,10.00
2019-03-16T20:51:38.908Z,6.33
2019-03-16T20:56:41.757Z,8.07
2019-03-16T20:59:09.893Z,10.67
2019-03-16T21:01:38.511Z,8.13
2019-03-16T21:04:06.591Z,10.93
2019-03-16T21:06:34.731Z,6.90
2019-03-16T21:09:03.685Z,6.13
2019-03-16T21:11:33.879Z,7.93
2019-03-16T21:14:02.098Z,7.33
2019-03-16T21:16:30.185Z,8.07
2019-03-16T21:18:58.261Z,8.20
2019-03-16T21:21:29.371Z,10.17
2019-03-16T21:24:08.915Z,10.90
2019-03-16T21:26:37.015Z,7.27
2019-03-16T21:29:05.468Z,8.67
2019-03-16T21:31:33.543Z,7.73
2019-03-16T21:34:01.724Z,6.73
2019-03-16T21:36:40.958Z,7.63
2019-03-16T21:38:59.609Z,11.53
2019-03-16T21:41:27.679Z,8.10
2019-03-16T21:43:55.744Z,6.90
2019-03-16T21:46:23.860Z,8.50
2019-03-16T21:48:51.959Z,8.40
2019-03-16T21:51:20.044Z,10.17
2019-03-16T21:53:48.092Z,7.80
2019-03-16T21:56:16.162Z,7.23
2019-03-16T21:58:44.309Z,10.17
2019-03-16T22:01:12.485Z,9.77
2019-03-16T22:03:41.982Z,7.43
2019-03-16T22:06:10.444Z,8.43
2019-03-16T22:08:38.536Z,9.07
2019-03-16T22:11:06.712Z,5.37
2019-03-16T22:13:34.814Z,11.70
2019-03-16T22:16:02.940Z,6.57
2019-03-16T22:18:31.042Z,6.60
2019-03-16T22:20:59.073Z,10.60
2019-03-16T22:23:27.388Z,7.23
2019-03-16T22:25:55.513Z,7.07
2019-03-16T22:28:23.936Z,8.50
2019-03-16T22:30:51.982Z,7.50
2019-03-16T22:33:20.133Z,9.23
2019-03-16T22:35:48.274Z,5.90
2019-03-16T22:38:16.313Z,6.57
2019-03-16T22:40:44.475Z,6.70
2019-03-16T22:43:15.396Z,6.63
2019-03-16T22:45:42.314Z,7.17
2019-03-16T22:48:10.594Z,7.73
2019-03-16T22:50:38.986Z,9.37
2019-03-16T22:53:07.427Z,7.97
2019-03-16T22:55:35.426Z,5.83
2019-03-16T22:58:03.552Z,5.90
2019-03-16T23:00:43.124Z,6.63
2019-03-16T23:03:11.325Z,5.70
2019-03-16T23:05:39.380Z,6.90
2019-03-16T23:08:07.425Z,6.20
2019-03-16T23:10:35.512Z,8.07
2019-03-16T23:13:03.558Z,6.40
2019-03-16T23:15:31.894Z,5.67
2019-03-16T23:17:59.910Z,9.87
2019-03-16T23:20:27.977Z,6.43
2019-03-16T23:22:56.987Z,4.50
2019-03-16T23:25:25.066Z,5.10
2019-03-16T23:27:53.129Z,8.10
2019-03-16T23:30:21.184Z,9.00
2019-03-16T23:32:49.288Z,6.93
2019-03-16T23:35:17.396Z,4.90
2019-03-16T23:37:45.520Z,7.97
2019-03-16T23:40:13.597Z,5.50
2019-03-16T23:42:41.709Z,4.70
2019-03-16T23:45:09.976Z,8.23
2019-03-16T23:47:38.031Z,7.83
2019-03-16T23:50:06.304Z,5.53
2019-03-16T23:52:36.870Z,6.43
2019-03-16T23:55:04.189Z,8.03
2019-03-16T23:57:32.251Z,6.50
